Time;durP1;ratioP1;P1;durP2;ratioP2;P2;SDS_P1;SDS_P2;PMS_P1;PMS_P2;Temp;Humidity;BMP_temperature;BMP_pressure;BME280_temperature;BME280_humidity;BME280_pressure;Samples;Min_cycle;Max_cycle;Signal;HPM_P1;HPM_P2
2022/04/27 00:00:57;;;;;;;6.70;4.63;;;11.90;99.90;;;;;;5012333;28;20250;-76
2022/04/27 00:03:23;;;;;;;6.50;5.33;;;11.80;99.90;;;;;;5013302;28;20747;-76
2022/04/27 00:05:48;;;;;;;6.93;5.40;;;11.80;99.90;;;;;;4998106;28;20198;-76
2022/04/27 00:08:14;;;;;;;4.37;4.03;;;11.70;99.90;;;;;;4998275;28;20167;-77
2022/04/27 00:10:40;;;;;;;4.83;4.43;;;11.70;99.90;;;;;;5001992;28;21140;-76
2022/04/27 00:13:06;;;;;;;5.70;4.67;;;11.70;99.90;;;;;;4994173;28;20179;-75
2022/04/27 00:15:32;;;;;;;5.13;4.63;;;11.60;99.90;;;;;;4976557;28;20629;-75
2022/04/27 00:17:58;;;;;;;5.73;5.10;;;11.60;99.90;;;;;;4993760;28;20594;-75
2022/04/27 00:20:24;;;;;;;6.47;5.67;;;11.60;99.90;;;;;;4994240;28;21392;-76
2022/04/27 00:22:49;;;;;;;5.57;5.03;;;11.60;99.90;;;;;;4994064;28;20241;-76
2022/04/27 00:25:16;;;;;;;5.60;4.53;;;11.60;99.90;;;;;;4994057;28;20602;-75
2022/04/27 00:27:42;;;;;;;8.07;4.07;;;11.70;99.90;;;;;;4976340;28;20220;-76
2022/04/27 00:30:08;;;;;;;6.60;5.40;;;11.70;99.90;;;;;;4976396;28;20215;-76
2022/04/27 00:32:35;;;;;;;8.20;5.97;;;11.70;99.90;;;;;;4994191;28;20171;-76
2022/04/27 00:35:00;;;;;;;6.45;5.20;;;11.70;99.90;;;;;;4976440;28;20210;-76
2022/04/27 00:37:26;;;;;;;5.00;4.60;;;11.70;99.90;;;;;;4993558;28;20178;-76
2022/04/27 00:39:52;;;;;;;4.90;4.40;;;11.70;99.90;;;;;;4975559;28;20171;-76
2022/04/27 00:42:21;;;;;;;5.37;4.87;;;11.80;99.90;;;;;;4976428;28;20250;-75
2022/04/27 00:44:48;;;;;;;6.97;5.70;;;11.80;99.90;;;;;;4976109;28;20210;-76
2022/04/27 00:47:18;;;;;;;5.80;5.20;;;11.80;99.90;;;;;;4960201;28;20179;-76
2022/04/27 00:49:47;;;;;;;8.07;5.32;;;11.90;99.90;;;;;;4992584;28;20202;-76
2022/04/27 00:52:14;;;;;;;5.43;5.00;;;11.90;99.90;;;;;;4975861;28;20171;-76
2022/04/27 00:54:41;;;;;;;8.27;5.13;;;11.90;99.90;;;;;;4992834;28;20298;-76
2022/04/27 00:57:07;;;;;;;5.32;4.82;;;12.00;99.90;;;;;;4976278;28;20176;-81
2022/04/27 00:59:34;;;;;;;6.65;5.57;;;12.00;99.90;;;;;;4975711;28;20534;-81
2022/04/27 01:02:00;;;;;;;5.65;5.15;;;12.00;99.90;;;;;;4976334;28;20171;-81
2022/04/27 01:04:26;;;;;;;5.90;5.40;;;12.00;99.90;;;;;;4976246;28;20680;-81
2022/04/27 01:06:52;;;;;;;11.30;5.40;;;12.00;99.90;;;;;;4975839;28;20927;-81
2022/04/27 01:09:18;;;;;;;9.33;5.07;;;12.00;99.90;;;;;;4992989;28;21007;-81
2022/04/27 01:11:44;;;;;;;6.03;5.47;;;12.00;99.90;;;;;;4959845;28;20574;-81
2022/04/27 01:14:11;;;;;;;7.50;5.05;;;12.00;99.90;;;;;;4975951;28;20298;-81
2022/04/27 01:16:37;;;;;;;7.87;5.20;;;12.00;99.90;;;;;;4976238;28;20195;-78
2022/04/27 01:19:05;;;;;;;6.13;4.90;;;12.00;99.90;;;;;;4975362;28;20241;-77
2022/04/27 01:21:31;;;;;;;6.22;4.78;;;12.00;99.90;;;;;;4975422;28;20178;-77
2022/04/27 01:24:04;;;;;;;6.70;4.90;;;12.00;99.90;;;;;;4975994;28;20179;-77
2022/04/27 01:26:32;;;;;;;5.57;5.07;;;12.00;99.90;;;;;;4992996;28;20186;-77
2022/04/27 01:28:58;;;;;;;6.55;5.47;;;12.00;99.90;;;;;;4975169;28;20175;-77
2022/04/27 01:31:24;;;;;;;6.55;4.60;;;12.00;99.90;;;;;;4975262;28;20599;-77
2022/04/27 01:33:51;;;;;;;7.28;5.40;;;12.00;99.90;;;;;;4992863;28;20206;-77
2022/04/27 01:36:17;;;;;;;5.47;4.97;;;11.90;99.90;;;;;;4975076;28;20667;-77
2022/04/27 01:38:44;;;;;;;7.40;6.80;;;12.00;99.90;;;;;;4992403;28;20254;-77
2022/04/27 01:41:10;;;;;;;5.32;4.85;;;12.00;99.90;;;;;;4959148;28;20163;-77
2022/04/27 01:43:37;;;;;;;4.68;4.22;;;12.00;99.90;;;;;;4975335;28;20183;-77
2022/04/27 01:46:07;;;;;;;9.02;6.00;;;12.00;99.90;;;;;;4992591;28;20202;-77
2022/04/27 01:48:33;;;;;;;6.55;5.15;;;12.00;99.90;;;;;;4992253;28;20557;-77
2022/04/27 01:50:59;;;;;;;6.55;4.95;;;12.00;99.90;;;;;;4992105;28;20265;-77
2022/04/27 01:56:12;;;;;;;5.50;5.00;;;12.00;99.90;;;;;;4975118;28;20191;-77
2022/04/27 01:58:42;;;;;;;5.35;4.85;;;12.00;99.90;;;;;;4974760;28;20175;-76
2022/04/27 02:01:12;;;;;;;5.68;4.68;;;12.10;99.90;;;;;;4958571;28;20542;-76
2022/04/27 02:03:40;;;;;;;6.82;5.32;;;12.00;99.90;;;;;;4974931;28;20200;-76
2022/04/27 02:06:10;;;;;;;7.10;4.93;;;12.00;99.90;;;;;;4973529;28;20207;-76
2022/04/27 02:08:36;;;;;;;6.55;5.95;;;12.10;99.90;;;;;;4974408;28;20183;-76
2022/04/27 02:11:02;;;;;;;7.70;5.60;;;12.10;99.90;;;;;;4974581;28;20241;-76
2022/04/27 02:13:33;;;;;;;5.78;5.28;;;12.10;99.90;;;;;;4958493;28;20230;-75
2022/04/27 02:16:01;;;;;;;5.93;4.70;;;12.10;99.90;;;;;;4974768;28;20195;-76
2022/04/27 02:18:37;;;;;;;6.47;5.45;;;12.10;99.90;;;;;;4990857;28;20169;-76
2022/04/27 02:21:05;;;;;;;5.43;4.93;;;12.10;99.90;;;;;;4974175;28;20179;-76
2022/04/27 02:23:31;;;;;;;6.13;5.60;;;12.10;99.90;;;;;;4983667;28;20176;-76
2022/04/27 02:26:00;;;;;;;5.23;4.83;;;12.10;99.90;;;;;;4985984;28;20728;-76
2022/04/27 02:28:27;;;;;;;5.72;4.85;;;12.10;99.90;;;;;;4985095;28;20662;-76
2022/04/27 02:30:53;;;;;;;6.40;5.10;;;12.10;99.90;;;;;;4977359;28;20181;-76
2022/04/27 02:33:19;;;;;;;6.00;5.40;;;12.10;99.90;;;;;;4985528;28;20640;-76
2022/04/27 02:35:44;;;;;;;5.90;5.33;;;12.00;99.90;;;;;;4982832;28;20285;-76
2022/04/27 02:38:10;;;;;;;7.00;5.87;;;12.00;99.90;;;;;;5005526;28;20655;-76
2022/04/27 02:40:36;;;;;;;11.38;7.05;;;12.00;99.90;;;;;;4992098;28;20642;-76
2022/04/27 02:43:03;;;;;;;6.60;5.90;;;12.00;99.90;;;;;;4982364;28;20651;-76
2022/04/27 02:45:29;;;;;;;7.43;6.40;;;12.00;99.90;;;;;;4990373;28;20222;-76
2022/04/27 02:47:56;;;;;;;7.30;6.60;;;12.00;99.90;;;;;;4992912;28;20185;-76
2022/04/27 02:53:07;;;;;;;9.35;6.03;;;12.00;99.90;;;;;;4993535;28;20224;-77
2022/04/27 02:55:36;;;;;;;5.30;4.80;;;12.00;99.90;;;;;;4977591;28;20224;-76
2022/04/27 02:58:02;;;;;;;7.28;6.18;;;12.00;99.90;;;;;;4977215;28;20547;-76
2022/04/27 03:00:30;;;;;;;6.05;5.55;;;12.00;99.90;;;;;;4993239;28;20217;-76
2022/04/27 03:02:59;;;;;;;7.85;5.50;;;12.00;99.90;;;;;;4982729;28;20178;-76
2022/04/27 03:05:24;;;;;;;7.13;5.47;;;12.00;99.90;;;;;;4980581;28;20539;-76
2022/04/27 03:07:50;;;;;;;6.30;4.97;;;11.90;99.90;;;;;;4984826;28;20189;-76
2022/04/27 03:10:17;;;;;;;6.43;5.82;;;11.90;99.90;;;;;;4993359;28;20178;-76
2022/04/27 03:12:44;;;;;;;8.95;6.30;;;11.90;99.90;;;;;;5011234;28;20596;-77
2022/04/27 03:15:09;;;;;;;7.20;5.83;;;11.90;99.90;;;;;;5011168;28;20194;-76
2022/04/27 03:17:36;;;;;;;5.85;5.22;;;11.90;99.90;;;;;;4993945;28;20206;-77
2022/04/27 03:20:04;;;;;;;7.20;6.50;;;11.80;99.90;;;;;;5007927;23;20222;-74
2022/04/27 03:22:30;;;;;;;7.47;6.68;;;11.80;99.90;;;;;;4985795;28;20210;-74
2022/04/27 03:24:56;;;;;;;7.03;5.70;;;11.70;99.90;;;;;;4995206;28;20254;-74
2022/04/27 03:27:27;;;;;;;7.25;6.28;;;11.70;99.90;;;;;;4994041;28;20530;-74
2022/04/27 03:29:53;;;;;;;5.70;5.18;;;11.60;99.90;;;;;;4976659;28;20282;-74
2022/04/27 03:32:19;;;;;;;6.33;5.73;;;11.60;99.90;;;;;;4977415;28;20746;-74
2022/04/27 03:34:53;;;;;;;6.72;6.15;;;11.60;99.90;;;;;;4977430;28;21198;-74
2022/04/27 03:37:22;;;;;;;7.13;6.45;;;11.50;99.90;;;;;;4977202;28;20186;-74
2022/04/27 03:39:49;;;;;;;7.80;5.50;;;11.40;99.90;;;;;;4960423;28;20682;-74
2022/04/27 03:42:18;;;;;;;7.15;5.68;;;11.40;99.90;;;;;;4977263;28;20175;-74
2022/04/27 03:44:47;;;;;;;7.35;5.70;;;11.30;99.90;;;;;;4977514;28;20234;-74
2022/04/27 03:47:13;;;;;;;6.50;5.67;;;11.20;99.90;;;;;;4994518;28;20631;-74
2022/04/27 03:49:38;;;;;;;7.53;5.33;;;11.20;99.90;;;;;;4993993;28;20285;-74
2022/04/27 03:52:05;;;;;;;6.35;5.75;;;11.10;99.90;;;;;;4977350;28;20171;-74
2022/04/27 03:54:31;;;;;;;6.85;6.25;;;11.00;99.90;;;;;;4977128;28;20293;-74
2022/04/27 03:56:58;;;;;;;8.13;5.83;;;11.00;99.90;;;;;;4994558;28;20195;-74
2022/04/27 03:59:25;;;;;;;8.18;6.90;;;10.90;99.90;;;;;;4976774;28;20202;-74
2022/04/27 04:01:51;;;;;;;6.70;6.10;;;10.90;99.90;;;;;;4976699;28;20243;-74
2022/04/27 04:04:17;;;;;;;7.43;5.77;;;10.80;99.90;;;;;;4977018;28;20254;-74
2022/04/27 04:06:43;;;;;;;6.13;5.53;;;10.70;99.90;;;;;;4960781;28;20669;-74
2022/04/27 04:09:09;;;;;;;7.70;6.93;;;10.70;99.90;;;;;;4976332;28;20278;-74
2022/04/27 04:11:36;;;;;;;9.73;6.55;;;10.60;99.90;;;;;;4976704;28;20657;-74
2022/04/27 04:14:22;;;;;;;12.23;7.32;;;10.60;99.90;;;;;;4975002;28;21029;-75
2022/04/27 04:16:52;;;;;;;8.65;7.05;;;10.60;99.90;;;;;;4976733;28;20258;-74
2022/04/27 04:19:32;;;;;;;7.22;6.50;;;10.60;99.90;;;;;;4975830;28;20213;-74
2022/04/27 04:22:19;;;;;;;7.20;6.50;;;10.50;99.90;;;;;;4976857;28;20179;-75
2022/04/27 04:30:39;;;;;;;7.43;6.65;;;10.50;99.90;;;;;;4992442;28;20570;-75
2022/04/27 04:33:26;;;;;;;7.07;6.43;;;10.50;99.90;;;;;;4960362;28;20198;-75
2022/04/27 04:35:56;;;;;;;7.95;7.20;;;10.50;99.90;;;;;;4976512;28;20169;-75
2022/04/27 04:38:23;;;;;;;5.93;5.38;;;10.50;99.90;;;;;;4976155;28;20266;-74
2022/04/27 04:40:55;;;;;;;9.88;6.63;;;10.50;99.90;;;;;;4975906;28;20321;-75
2022/04/27 04:43:25;;;;;;;6.40;5.88;;;10.50;99.90;;;;;;4976266;28;20214;-74
2022/04/27 04:45:52;;;;;;;7.13;6.43;;;10.50;99.90;;;;;;4976299;28;20175;-74
2022/04/27 04:48:40;;;;;;;7.45;6.47;;;10.50;99.90;;;;;;4984879;28;20265;-74
2022/04/27 04:51:29;;;;;;;7.95;7.20;;;10.50;99.90;;;;;;4993205;28;20253;-76
2022/04/27 04:54:13;;;;;;;8.65;6.97;;;10.50;99.90;;;;;;4981912;28;20202;-76
2022/04/27 04:56:57;;;;;;;8.20;7.05;;;10.60;99.90;;;;;;4994228;28;20201;-78
2022/04/27 04:59:34;;;;;;;6.13;5.60;;;10.60;99.90;;;;;;4975049;28;20214;-75
2022/04/27 05:02:15;;;;;;;10.07;6.57;;;10.60;99.90;;;;;;4959798;28;20171;-75
2022/04/27 05:04:46;;;;;;;7.82;7.13;;;10.60;99.90;;;;;;4993262;28;20194;-75
2022/04/27 05:07:26;;;;;;;9.70;8.70;;;10.60;99.90;;;;;;4957350;28;20719;-75
2022/04/27 05:10:02;;;;;;;8.25;7.13;;;10.50;99.90;;;;;;4940751;28;20622;-75
2022/04/27 05:12:46;;;;;;;10.10;6.93;;;10.60;99.90;;;;;;4973533;28;20258;-74
2022/04/27 05:15:21;;;;;;;8.02;6.70;;;10.60;99.90;;;;;;4973860;28;20195;-75
2022/04/27 05:17:56;;;;;;;10.07;7.25;;;10.70;99.90;;;;;;4955639;28;20226;-77
2022/04/27 05:20:32;;;;;;;8.02;6.55;;;10.70;99.90;;;;;;4955738;28;20888;-77
2022/04/27 05:23:23;;;;;;;11.98;7.45;;;10.70;99.90;;;;;;4956084;28;20171;-77
2022/04/27 05:26:03;;;;;;;9.02;6.47;;;10.80;99.90;;;;;;4955761;28;20227;-76
2022/04/27 05:31:58;;;;;;;7.45;6.70;;;10.80;99.90;;;;;;4963397;28;20383;-76
2022/04/27 05:34:43;;;;;;;7.97;7.18;;;10.90;99.90;;;;;;4972894;28;20660;-76
2022/04/27 05:37:39;;;;;;;8.73;6.93;;;10.90;99.90;;;;;;4936371;28;20557;-76
2022/04/27 05:40:25;;;;;;;9.05;7.88;;;11.00;99.90;;;;;;4955146;28;20191;-76
2022/04/27 05:43:17;;;;;;;9.00;8.13;;;11.00;99.90;;;;;;4956837;28;20311;-76
2022/04/27 05:45:48;;;;;;;8.77;7.85;;;11.00;99.90;;;;;;4955158;28;20581;-76
2022/04/27 05:48:40;;;;;;;10.50;8.18;;;11.00;99.90;;;;;;4956584;28;20211;-76
2022/04/27 05:51:18;;;;;;;8.27;7.10;;;11.10;99.90;;;;;;4941005;28;20164;-76
2022/04/27 05:54:16;;;;;;;8.88;7.05;;;11.10;99.90;;;;;;4955629;28;20214;-76
2022/04/27 05:57:18;;;;;;;11.35;8.85;;;11.20;99.90;;;;;;4955630;28;20164;-76
2022/04/27 06:00:06;;;;;;;7.95;7.15;;;11.20;99.90;;;;;;4971952;28;20207;-76
2022/04/27 06:02:56;;;;;;;9.57;8.50;;;11.30;99.90;;;;;;4942767;28;20171;-76
2022/04/27 06:05:27;;;;;;;8.75;7.95;;;11.30;99.90;;;;;;4955306;28;20250;-76
2022/04/27 06:07:53;;;;;;;9.25;8.35;;;11.40;99.90;;;;;;4954705;28;20269;-76
2022/04/27 06:10:21;;;;;;;9.15;8.25;;;11.50;99.90;;;;;;4938444;28;20218;-76
2022/04/27 06:12:54;;;;;;;9.43;8.43;;;11.60;99.90;;;;;;4955559;28;20172;-76
2022/04/27 06:15:38;;;;;;;8.25;7.45;;;11.70;99.90;;;;;;4972218;28;20202;-76
2022/04/27 06:18:11;;;;;;;9.65;8.70;;;11.80;99.90;;;;;;4955353;28;20183;-76
2022/04/27 06:20:40;;;;;;;9.05;7.55;;;12.00;99.90;;;;;;4953857;28;20211;-77
2022/04/27 06:23:07;;;;;;;10.10;8.23;;;12.10;99.90;;;;;;4954844;28;20191;-76
2022/04/27 06:25:34;;;;;;;12.07;8.70;;;12.20;99.90;;;;;;4954855;28;20172;-76
2022/04/27 06:28:04;;;;;;;10.65;9.65;;;12.40;99.90;;;;;;4954778;28;20179;-76
2022/04/27 06:30:30;;;;;;;8.52;7.72;;;12.50;99.90;;;;;;4954696;28;20188;-76
2022/04/27 06:32:56;;;;;;;11.45;8.13;;;12.70;99.90;;;;;;4955104;28;20715;-76
2022/04/27 06:35:22;;;;;;;11.20;8.83;;;12.90;99.90;;;;;;4955416;28;20204;-76
2022/04/27 06:37:52;;;;;;;11.07;9.93;;;13.20;99.90;;;;;;4954129;28;20585;-76
2022/04/27 06:40:19;;;;;;;8.85;8.05;;;13.60;99.90;;;;;;4953746;28;20226;-76
2022/04/27 06:42:46;;;;;;;10.53;8.87;;;14.30;99.90;;;;;;4955394;28;20207;-75
2022/04/27 06:45:31;;;;;;;7.77;7.00;;;15.30;99.90;;;;;;4971919;28;20571;-75
2022/04/27 06:48:15;;;;;;;7.83;7.13;;;16.60;99.90;;;;;;4957267;28;20587;-76
2022/04/27 06:50:59;;;;;;;8.80;7.07;;;17.80;99.90;;;;;;4957361;28;20637;-76
2022/04/27 06:53:44;;;;;;;6.43;5.93;;;19.00;99.90;;;;;;4974973;28;20717;-75
2022/04/27 06:56:28;;;;;;;7.20;5.90;;;20.10;99.90;;;;;;4976321;28;20593;-75
2022/04/27 06:59:07;;;;;;;7.10;6.40;;;21.20;99.90;;;;;;4959643;28;20650;-75
2022/04/27 07:01:36;;;;;;;5.57;5.07;;;22.20;99.90;;;;;;4944073;28;21170;-75
2022/04/27 07:04:11;;;;;;;7.00;5.17;;;23.10;99.90;;;;;;4961630;28;20627;-76
2022/04/27 07:06:38;;;;;;;5.50;4.87;;;23.90;99.90;;;;;;4959664;28;20591;-75
2022/04/27 07:09:05;;;;;;;6.50;4.87;;;24.70;99.90;;;;;;4976186;28;20619;-76
2022/04/27 07:11:31;;;;;;;7.10;5.20;;;25.30;99.90;;;;;;4977191;28;20577;-76
2022/04/27 07:13:56;;;;;;;5.40;4.90;;;25.80;99.90;;;;;;4976103;28;20718;-75
2022/04/27 07:16:22;;;;;;;5.20;4.70;;;26.40;99.90;;;;;;4976270;28;20175;-76
2022/04/27 07:18:50;;;;;;;5.17;4.70;;;26.80;99.90;;;;;;4974965;28;20179;-76
2022/04/27 07:21:16;;;;;;;4.60;3.93;;;27.10;99.90;;;;;;4942445;28;20314;-76
2022/04/27 07:23:41;;;;;;;4.50;4.00;;;27.50;99.90;;;;;;4975972;28;20596;-77
2022/04/27 07:26:08;;;;;;;4.67;4.17;;;27.80;99.90;;;;;;4958655;28;20722;-76
2022/04/27 07:28:36;;;;;;;4.30;3.90;;;28.20;99.90;;;;;;4975206;28;20172;-76
2022/04/27 07:31:02;;;;;;;4.43;4.03;;;28.20;96.90;;;;;;4975023;28;20578;-73
2022/04/27 07:33:28;;;;;;;4.97;3.67;;;28.40;96.30;;;;;;4975420;28;20656;-74
2022/04/27 07:35:53;;;;;;;4.70;3.43;;;28.70;96.00;;;;;;4975636;28;20174;-74
2022/04/27 07:38:19;;;;;;;4.53;3.63;;;28.90;94.30;;;;;;4957773;28;20207;-75
2022/04/27 07:40:45;;;;;;;4.80;4.40;;;29.00;92.80;;;;;;4975293;28;20191;-74
2022/04/27 07:43:10;;;;;;;5.43;3.40;;;29.30;92.10;;;;;;4958113;28;20186;-74
2022/04/27 07:45:36;;;;;;;3.70;3.40;;;29.60;92.10;;;;;;4975270;28;20188;-74
2022/04/27 07:48:02;;;;;;;3.97;3.60;;;29.70;90.00;;;;;;4957784;28;20175;-74
2022/04/27 07:50:28;;;;;;;4.00;3.70;;;29.60;88.20;;;;;;4975117;28;20735;-74
2022/04/27 07:52:56;;;;;;;4.57;3.23;;;29.70;86.10;;;;;;4975044;28;20188;-74
2022/04/27 07:55:22;;;;;;;3.30;3.00;;;30.00;85.20;;;;;;4958184;28;20199;-74
2022/04/27 07:57:48;;;;;;;4.07;2.77;;;30.10;81.40;;;;;;4974615;28;20618;-74
2022/04/27 08:00:14;;;;;;;3.90;2.90;;;30.10;80.10;;;;;;4974702;28;20599;-74
2022/04/27 08:02:41;;;;;;;4.80;3.33;;;30.20;80.80;;;;;;4957203;28;20591;-74
2022/04/27 08:05:08;;;;;;;4.00;3.10;;;30.50;77.90;;;;;;4974476;28;20622;-74
2022/04/27 08:07:44;;;;;;;4.40;2.57;;;30.80;76.90;;;;;;4974333;28;20575;-75
2022/04/27 08:10:12;;;;;;;3.20;2.70;;;31.10;74.10;;;;;;4974091;28;20612;-74
2022/04/27 08:12:40;;;;;;;2.97;2.67;;;31.30;74.40;;;;;;4975064;28;20571;-74
2022/04/27 08:15:07;;;;;;;4.20;3.37;;;31.60;74.20;;;;;;4957178;28;20636;-74
2022/04/27 08:17:33;;;;;;;3.40;2.43;;;31.90;72.90;;;;;;4974461;28;20677;-76
2022/04/27 08:22:44;;;;;;;3.17;2.13;;;32.10;65.10;;;;;;4957516;28;20194;-74
2022/04/27 08:25:10;;;;;;;3.03;2.30;;;32.30;65.30;;;;;;4974009;28;20671;-75
2022/04/27 08:27:36;;;;;;;2.70;1.87;;;32.30;63.00;;;;;;4956992;28;20774;-74
2022/04/27 08:30:02;;;;;;;2.77;1.60;;;32.50;62.30;;;;;;4974185;28;20606;-75
2022/04/27 08:32:28;;;;;;;2.83;1.83;;;32.40;60.10;;;;;;4957374;28;20170;-74
2022/04/27 08:34:53;;;;;;;3.60;2.60;;;32.40;59.50;;;;;;4957077;28;20684;-74
2022/04/27 08:37:19;;;;;;;2.30;1.77;;;32.40;59.40;;;;;;4974324;28;20225;-74
2022/04/27 08:39:45;;;;;;;3.30;2.00;;;32.60;59.60;;;;;;4973534;28;20275;-74
2022/04/27 08:42:12;;;;;;;3.63;2.43;;;32.90;59.70;;;;;;4956662;28;20658;-75
2022/04/27 08:44:38;;;;;;;3.23;1.97;;;33.10;57.80;;;;;;4957100;28;20260;-75
2022/04/27 08:47:07;;;;;;;4.13;1.83;;;33.30;57.30;;;;;;4974209;28;20581;-75
2022/04/27 08:49:34;;;;;;;3.10;1.77;;;33.50;56.80;;;;;;4956290;28;20604;-75
2022/04/27 08:52:01;;;;;;;3.70;1.67;;;33.50;53.20;;;;;;4956519;28;20580;-75
2022/04/27 08:54:28;;;;;;;3.33;2.30;;;33.40;53.50;;;;;;4971745;28;20808;-74
2022/04/27 08:56:53;;;;;;;3.13;2.00;;;33.40;53.60;;;;;;4973567;28;20592;-74
2022/04/27 08:59:19;;;;;;;2.93;1.90;;;33.40;53.40;;;;;;4951879;28;20993;-74
2022/04/27 09:01:45;;;;;;;5.37;2.37;;;33.60;52.60;;;;;;4954173;28;20233;-74
2022/04/27 09:04:15;;;;;;;3.07;1.87;;;33.60;52.80;;;;;;4951003;28;20638;-74
2022/04/27 09:06:41;;;;;;;5.00;1.87;;;33.80;51.70;;;;;;4973123;28;20206;-75
2022/04/27 09:09:13;;;;;;;2.33;1.57;;;33.90;52.30;;;;;;4973115;28;20644;-75
2022/04/27 09:11:39;;;;;;;3.20;2.17;;;34.20;52.50;;;;;;4972734;28;20587;-74
2022/04/27 09:14:09;;;;;;;3.23;2.10;;;34.30;50.60;;;;;;4956007;28;20637;-74
2022/04/27 09:22:08;;;;;;;3.50;2.10;;;34.60;49.90;;;;;;4972931;28;20590;-75
2022/04/27 09:25:09;;;;;;;2.90;2.00;;;34.80;49.50;;;;;;4957237;28;20613;-75
2022/04/27 09:27:35;;;;;;;3.23;1.90;;;34.90;49.60;;;;;;4943143;28;20599;-75
2022/04/27 09:30:12;;;;;;;3.07;2.20;;;35.00;48.50;;;;;;4954746;28;21231;-76
2022/04/27 09:32:50;;;;;;;3.30;2.10;;;35.20;48.00;;;;;;4973096;28;20236;-76
2022/04/27 09:35:32;;;;;;;3.80;2.30;;;35.30;46.70;;;;;;4972862;28;20626;-76
2022/04/27 09:38:15;;;;;;;2.90;2.50;;;35.40;47.70;;;;;;4972645;28;20566;-76
2022/04/27 09:40:56;;;;;;;4.60;2.90;;;35.50;46.60;;;;;;4964279;28;20626;-77
2022/04/27 09:43:42;;;;;;;4.40;2.00;;;35.50;45.20;;;;;;4973396;28;21199;-77
2022/04/27 09:46:17;;;;;;;3.33;2.30;;;35.60;45.70;;;;;;4969903;28;20602;-75
2022/04/27 09:48:46;;;;;;;3.20;2.10;;;35.70;45.00;;;;;;4972172;28;20648;-75
2022/04/27 09:51:13;;;;;;;4.77;2.97;;;35.70;45.10;;;;;;4972621;28;20599;-75
2022/04/27 09:53:42;;;;;;;3.20;2.37;;;35.70;44.60;;;;;;4964928;28;20601;-75
2022/04/27 09:56:12;;;;;;;2.77;2.47;;;35.70;44.50;;;;;;4963088;28;20614;-74
2022/04/27 09:58:45;;;;;;;3.07;2.33;;;35.30;42.10;;;;;;4971400;28;20568;-76
2022/04/27 10:01:15;;;;;;;3.43;2.43;;;34.70;42.20;;;;;;4963494;28;20622;-76
2022/04/27 10:03:44;;;;;;;3.37;2.63;;;34.40;42.70;;;;;;4963030;28;20623;-77
2022/04/27 10:06:10;;;;;;;3.30;2.20;;;34.00;42.60;;;;;;4969499;28;20590;-76
2022/04/27 10:08:39;;;;;;;3.87;2.60;;;33.80;43.50;;;;;;4971804;28;20574;-77
2022/04/27 10:11:07;;;;;;;4.17;2.17;;;33.80;43.50;;;;;;4962795;28;20178;-77
2022/04/27 10:13:33;;;;;;;2.53;2.20;;;33.90;44.80;;;;;;4972091;28;20582;-77
2022/04/27 10:15:59;;;;;;;4.07;3.03;;;34.10;44.00;;;;;;4955002;28;20577;-76
2022/04/27 10:18:25;;;;;;;4.30;3.00;;;34.20;43.60;;;;;;4971234;28;20577;-77
2022/04/27 10:20:54;;;;;;;3.63;2.50;;;34.40;43.60;;;;;;4954658;28;20643;-77
2022/04/27 10:23:24;;;;;;;2.70;2.30;;;34.50;43.20;;;;;;4972217;28;20171;-77
2022/04/27 10:26:11;;;;;;;4.03;2.83;;;34.70;43.40;;;;;;4955158;28;20575;-77
2022/04/27 10:28:43;;;;;;;3.53;2.50;;;34.80;42.00;;;;;;4953665;28;20605;-77
2022/04/27 10:31:09;;;;;;;3.07;2.60;;;34.60;42.10;;;;;;4979493;28;20598;-77
2022/04/27 10:33:39;;;;;;;4.47;2.90;;;34.60;42.30;;;;;;4972016;28;20613;-77
2022/04/27 10:36:39;;;;;;;3.27;2.80;;;34.60;41.50;;;;;;4944166;28;20601;-77
2022/04/27 10:39:17;;;;;;;4.17;2.80;;;34.60;41.20;;;;;;4954006;28;21304;-77
2022/04/27 10:41:57;;;;;;;2.50;2.30;;;34.40;40.90;;;;;;4971762;28;20586;-77
2022/04/27 10:44:47;;;;;;;3.50;3.20;;;34.10;40.80;;;;;;4954719;28;20568;-77
2022/04/27 10:47:20;;;;;;;4.43;3.30;;;33.90;39.70;;;;;;4972166;28;20581;-77
2022/04/27 10:50:05;;;;;;;2.80;2.40;;;33.70;40.90;;;;;;4971382;28;20605;-77
2022/04/27 10:52:43;;;;;;;3.30;2.23;;;33.60;41.30;;;;;;4953600;28;21180;-77
2022/04/27 10:55:35;;;;;;;2.97;2.23;;;33.50;41.50;;;;;;4954870;28;20715;-77
2022/04/27 10:58:42;;;;;;;5.77;3.50;;;33.30;41.50;;;;;;4954215;28;21208;-77
2022/04/27 11:01:11;;;;;;;3.50;2.90;;;33.30;41.50;;;;;;4937394;28;20588;-77
2022/04/27 11:03:38;;;;;;;3.30;3.00;;;32.90;40.30;;;;;;4953844;28;20628;-75
2022/04/27 11:06:06;;;;;;;2.60;2.40;;;32.50;40.20;;;;;;4938638;28;20591;-76
2022/04/27 11:08:52;;;;;;;4.43;3.33;;;32.00;40.30;;;;;;4953639;28;20718;-76
2022/04/27 11:11:21;;;;;;;5.00;2.67;;;31.60;40.20;;;;;;4977837;28;20951;-75
2022/04/27 11:13:47;;;;;;;4.83;2.97;;;31.10;40.20;;;;;;4949396;28;20590;-76
2022/04/27 11:16:13;;;;;;;3.63;2.50;;;30.80;41.10;;;;;;4976980;28;20662;-76
2022/04/27 11:18:58;;;;;;;4.70;3.40;;;30.80;41.50;;;;;;4961831;28;21069;-76
2022/04/27 11:21:28;;;;;;;4.00;3.23;;;30.70;41.60;;;;;;4951658;29;20642;-76
2022/04/27 11:23:55;;;;;;;3.93;3.20;;;30.70;41.80;;;;;;4953616;28;20575;-76
2022/04/27 11:26:21;;;;;;;3.23;2.90;;;30.60;41.40;;;;;;4971234;28;20590;-74
2022/04/27 11:28:47;;;;;;;3.20;2.87;;;30.50;41.10;;;;;;4970386;28;20583;-74
2022/04/27 11:31:14;;;;;;;4.83;4.13;;;30.40;41.40;;;;;;4954405;28;20187;-74
2022/04/27 11:33:40;;;;;;;4.00;3.30;;;30.30;41.20;;;;;;4953906;28;20594;-75
2022/04/27 11:36:07;;;;;;;6.33;4.30;;;30.30;41.60;;;;;;4973663;28;21360;-74
2022/04/27 11:38:37;;;;;;;3.97;3.57;;;30.30;41.80;;;;;;4936600;28;20678;-73
2022/04/27 11:41:12;;;;;;;6.13;4.87;;;30.30;41.40;;;;;;4973087;28;20846;-74
2022/04/27 11:43:38;;;;;;;4.30;3.67;;;30.30;42.00;;;;;;4973773;28;20989;-73
2022/04/27 11:46:04;;;;;;;4.67;3.47;;;30.20;41.60;;;;;;4974096;28;20583;-74
2022/04/27 11:48:30;;;;;;;4.80;3.07;;;30.20;41.80;;;;;;4973043;28;20171;-74
2022/04/27 11:50:59;;;;;;;6.47;4.40;;;30.00;41.20;;;;;;4956102;28;20199;-74
2022/04/27 11:53:26;;;;;;;3.63;3.30;;;29.90;41.20;;;;;;4973707;28;21565;-74
2022/04/27 11:55:52;;;;;;;6.37;2.97;;;29.80;40.50;;;;;;4973882;28;20677;-74
2022/04/27 11:58:23;;;;;;;4.07;3.77;;;29.60;41.30;;;;;;4955310;28;20928;-74
2022/04/27 12:01:02;;;;;;;3.80;3.40;;;29.50;41.50;;;;;;4956025;28;20964;-74
2022/04/27 12:03:32;;;;;;;4.87;3.87;;;29.20;40.70;;;;;;4973442;28;20601;-75
2022/04/27 12:05:58;;;;;;;4.37;3.80;;;28.80;40.20;;;;;;4973358;28;20689;-75
2022/04/27 12:08:25;;;;;;;4.50;3.73;;;28.40;40.20;;;;;;4955771;28;21123;-75
2022/04/27 12:10:53;;;;;;;5.00;4.00;;;28.00;40.70;;;;;;4973077;28;20622;-74
2022/04/27 12:13:21;;;;;;;5.07;3.67;;;27.60;40.90;;;;;;4956364;28;20924;-75
2022/04/27 12:15:51;;;;;;;4.20;3.77;;;27.30;41.30;;;;;;4955896;28;20985;-75
2022/04/27 12:18:22;;;;;;;4.63;3.40;;;27.10;41.50;;;;;;4939748;28;20606;-75
2022/04/27 12:20:48;;;;;;;5.50;3.67;;;26.90;41.90;;;;;;4932352;28;1197624;-75
2022/04/27 12:23:16;;;;;;;5.50;4.50;;;26.80;43.10;;;;;;4957233;28;20936;-75
2022/04/27 12:25:55;;;;;;;6.47;4.57;;;26.70;42.60;;;;;;4956185;28;20617;-75
2022/04/27 12:28:32;;;;;;;5.10;3.63;;;26.80;43.40;;;;;;4973426;28;20571;-75
2022/04/27 12:31:03;;;;;;;4.50;3.83;;;26.80;43.60;;;;;;4973837;28;20630;-74
2022/04/27 12:33:32;;;;;;;4.60;3.90;;;27.00;43.80;;;;;;4941229;28;20686;-74
2022/04/27 12:39:04;;;;;;;4.40;4.00;;;26.90;42.70;;;;;;4972177;28;20630;-74
2022/04/27 12:41:40;;;;;;;5.60;4.53;;;26.60;42.00;;;;;;4956259;28;20594;-74
2022/04/27 12:44:14;;;;;;;6.23;4.90;;;26.30;42.00;;;;;;4973258;28;20610;-74
2022/04/27 12:47:09;;;;;;;4.83;4.20;;;25.90;42.00;;;;;;4957257;28;20587;-77
2022/04/27 12:49:40;;;;;;;10.70;4.77;;;25.50;42.30;;;;;;4973140;28;20750;-78
2022/04/27 12:52:18;;;;;;;6.93;5.10;;;25.20;42.30;;;;;;4973621;28;21103;-77
2022/04/27 12:54:48;;;;;;;5.60;3.73;;;24.80;42.10;;;;;;4973583;28;20630;-78
2022/04/27 12:57:14;;;;;;;4.63;3.60;;;24.40;42.40;;;;;;4974035;28;20580;-77
2022/04/27 13:00:00;;;;;;;4.50;4.10;;;24.10;42.90;;;;;;4955346;28;20702;-79
2022/04/27 13:02:27;;;;;;;3.77;3.47;;;23.90;43.20;;;;;;4956113;28;20575;-77
2022/04/27 13:04:54;;;;;;;4.63;4.00;;;23.70;43.60;;;;;;4958420;28;20591;-78
2022/04/27 13:07:26;;;;;;;6.30;4.10;;;23.60;43.70;;;;;;4956245;28;20907;-77
2022/04/27 13:12:38;;;;;;;3.87;3.50;;;23.40;43.90;;;;;;4954088;28;20627;-74
2022/04/27 13:15:06;;;;;;;5.83;5.00;;;23.30;43.80;;;;;;4965065;28;20639;-76
2022/04/27 13:17:33;;;;;;;4.63;4.10;;;23.10;43.70;;;;;;4964416;28;20594;-76
2022/04/27 13:19:59;;;;;;;4.87;4.33;;;23.00;43.80;;;;;;4983521;28;20641;-76
2022/04/27 13:22:25;;;;;;;4.40;3.90;;;22.90;44.00;;;;;;4983909;28;20606;-76
2022/04/27 13:24:51;;;;;;;7.27;4.43;;;22.80;44.20;;;;;;4972123;28;20591;-76
2022/04/27 13:27:18;;;;;;;4.70;4.27;;;22.70;44.50;;;;;;4973078;28;20578;-76
2022/04/27 13:29:44;;;;;;;6.03;4.23;;;22.70;44.70;;;;;;4964151;28;20758;-76
2022/04/27 13:32:10;;;;;;;4.60;4.23;;;22.60;44.80;;;;;;4972717;28;20591;-76